ANZ104 NZWN-NZQN
Flight info
| Callsign | ANZ104 |
|---|---|
| Flight time | 1h 2m |
| Altitude | 34000 |
| Route | SABDA Y622 MESIX H159 CH Y266 ELRUV |
| Aircraft | A320/M-SDE3FGHIRWY/LB1 |
Departure
| Time | 2026-05-06 23:40 |
|---|---|
| Airport | Wellington International Airport (NZWN) |
Arrival
| Time | 2026-05-07 00:43 |
|---|---|
| Airport | Queenstown Airport (NZQN) |
| Time | Latitude | Longitude | Altitude | Speed | Heading |
|---|---|---|---|---|---|
| 2026-05-06 23:08 | -41.32873 | 174.81049 | 27 ft | 0 kts | 31° |
| 2026-05-06 23:25 | -41.32890 | 174.81036 | 26 ft | 3 kts | 34° |
| 2026-05-06 23:25 | -41.32911 | 174.81010 | 26 ft | 3 kts | 66° |
| 2026-05-06 23:25 | -41.32915 | 174.80986 | 26 ft | 3 kts | 92° |
| 2026-05-06 23:26 | -41.32914 | 174.80966 | 26 ft | 3 kts | 92° |
| 2026-05-06 23:26 | -41.32913 | 174.80936 | 26 ft | 3 kts | 92° |
| 2026-05-06 23:26 | -41.32913 | 174.80907 | 26 ft | 3 kts | 102° |
| 2026-05-06 23:26 | -41.32904 | 174.80884 | 26 ft | 3 kts | 158° |
| 2026-05-06 23:27 | -41.32883 | 174.80880 | 26 ft | 3 kts | 185° |
| 2026-05-06 23:27 | -41.32862 | 174.80883 | 26 ft | 3 kts | 182° |
| 2026-05-06 23:27 | -41.32839 | 174.80884 | 26 ft | 3 kts | 182° |
| 2026-05-06 23:27 | -41.32816 | 174.80885 | 26 ft | 3 kts | 182° |
| 2026-05-06 23:28 | -41.32795 | 174.80887 | 26 ft | 2 kts | 182° |
| 2026-05-06 23:28 | -41.32794 | 174.80887 | 26 ft | 0 kts | 182° |
| 2026-05-06 23:30 | -41.32808 | 174.80886 | 26 ft | 4 kts | 183° |
| 2026-05-06 23:30 | -41.32827 | 174.80859 | 26 ft | 5 kts | 258° |
| 2026-05-06 23:31 | -41.32845 | 174.80812 | 26 ft | 7 kts | 205° |
| 2026-05-06 23:31 | -41.32904 | 174.80803 | 26 ft | 10 kts | 183° |
| 2026-05-06 23:31 | -41.32987 | 174.80798 | 26 ft | 14 kts | 183° |
| 2026-05-06 23:31 | -41.33089 | 174.80791 | 26 ft | 14 kts | 182° |
| 2026-05-06 23:32 | -41.33193 | 174.80784 | 26 ft | 15 kts | 183° |
| 2026-05-06 23:32 | -41.33298 | 174.80778 | 26 ft | 16 kts | 182° |
| 2026-05-06 23:32 | -41.33417 | 174.80772 | 26 ft | 18 kts | 182° |
| 2026-05-06 23:32 | -41.33491 | 174.80759 | 26 ft | 0 kts | 212° |
| 2026-05-06 23:35 | -41.33497 | 174.80753 | 26 ft | 3 kts | 216° |
| 2026-05-06 23:36 | -41.33514 | 174.80719 | 26 ft | 6 kts | 237° |
| 2026-05-06 23:36 | -41.33535 | 174.80656 | 26 ft | 9 kts | 256° |
| 2026-05-06 23:36 | -41.33504 | 174.80635 | 26 ft | 0 kts | 5° |
| 2026-05-06 23:40 | -41.33369 | 174.80648 | 27 ft | 53 kts | 2° |
| 2026-05-06 23:40 | -41.32788 | 174.80680 | 27 ft | 111 kts | 3° |
| 2026-05-06 23:40 | -41.31909 | 174.80735 | 325 ft | 128 kts | 1° |
| 2026-05-06 23:40 | -41.31032 | 174.80821 | 1004 ft | 128 kts | 0° |
| 2026-05-06 23:41 | -41.30141 | 174.80868 | 1699 ft | 127 kts | 357° |
| 2026-05-06 23:41 | -41.29229 | 174.80920 | 2170 ft | 139 kts | 356° |
| 2026-05-06 23:41 | -41.28180 | 174.80979 | 2452 ft | 163 kts | 356° |
| 2026-05-06 23:41 | -41.26974 | 174.81049 | 2954 ft | 179 kts | 355° |
| 2026-05-06 23:42 | -41.25741 | 174.80884 | 3805 ft | 179 kts | 343° |
| 2026-05-06 23:42 | -41.24567 | 174.80326 | 4574 ft | 181 kts | 333° |
| 2026-05-06 23:42 | -41.23385 | 174.79675 | 5380 ft | 186 kts | 337° |
| 2026-05-06 23:42 | -41.22140 | 174.79127 | 6123 ft | 192 kts | 341° |
| 2026-05-06 23:43 | -41.20833 | 174.78665 | 6940 ft | 196 kts | 342° |
| 2026-05-06 23:43 | -41.19505 | 174.78209 | 7775 ft | 198 kts | 342° |
| 2026-05-06 23:43 | -41.18160 | 174.77749 | 8619 ft | 201 kts | 342° |
| 2026-05-06 23:43 | -41.16799 | 174.77280 | 9476 ft | 203 kts | 342° |
| 2026-05-06 23:44 | -41.15505 | 174.76548 | 10280 ft | 205 kts | 321° |
| 2026-05-06 23:44 | -41.14658 | 174.75007 | 11009 ft | 215 kts | 293° |
| 2026-05-06 23:44 | -41.14594 | 174.72971 | 11736 ft | 235 kts | 261° |
| 2026-05-06 23:44 | -41.15498 | 174.71097 | 12463 ft | 259 kts | 230° |
| 2026-05-06 23:45 | -41.16917 | 174.69570 | 13250 ft | 268 kts | 219° |
| 2026-05-06 23:45 | -41.18722 | 174.68725 | 13990 ft | 287 kts | 192° |
| 2026-05-06 23:45 | -41.20813 | 174.68862 | 14250 ft | 316 kts | 175° |
| 2026-05-06 23:45 | -41.23074 | 174.69295 | 14452 ft | 340 kts | 175° |
| 2026-05-06 23:46 | -41.25497 | 174.69729 | 14629 ft | 363 kts | 175° |
| 2026-05-06 23:46 | -41.28056 | 174.70168 | 14969 ft | 377 kts | 175° |
| 2026-05-06 23:46 | -41.30679 | 174.70609 | 15579 ft | 382 kts | 176° |
| 2026-05-06 23:46 | -41.33330 | 174.71052 | 16233 ft | 385 kts | 176° |
| 2026-05-06 23:47 | -41.36002 | 174.71352 | 16880 ft | 386 kts | 184° |
| 2026-05-06 23:47 | -41.38661 | 174.70956 | 17534 ft | 385 kts | 194° |
| 2026-05-06 23:47 | -41.41308 | 174.70341 | 18200 ft | 387 kts | 194° |
| 2026-05-06 23:47 | -41.43976 | 174.69717 | 18804 ft | 390 kts | 193° |
| 2026-05-06 23:48 | -41.46664 | 174.69089 | 19375 ft | 394 kts | 193° |
| 2026-05-06 23:48 | -41.49332 | 174.68247 | 19931 ft | 393 kts | 203° |
| 2026-05-06 23:48 | -41.51830 | 174.66790 | 20501 ft | 392 kts | 212° |
| 2026-05-06 23:48 | -41.54260 | 174.65096 | 21060 ft | 395 kts | 212° |
| 2026-05-06 23:49 | -41.56677 | 174.63411 | 21591 ft | 398 kts | 212° |
| 2026-05-06 23:49 | -41.59141 | 174.61691 | 22117 ft | 401 kts | 212° |
| 2026-05-06 23:49 | -41.61624 | 174.59954 | 22633 ft | 404 kts | 212° |
| 2026-05-06 23:49 | -41.64124 | 174.58208 | 23134 ft | 407 kts | 212° |
| 2026-05-06 23:50 | -41.66650 | 174.56451 | 23665 ft | 411 kts | 212° |
| 2026-05-06 23:50 | -41.71755 | 174.52893 | 24529 ft | 416 kts | 212° |
| 2026-05-06 23:50 | -41.74332 | 174.51089 | 24962 ft | 419 kts | 212° |
| 2026-05-06 23:51 | -41.76917 | 174.49272 | 25385 ft | 422 kts | 212° |
| 2026-05-06 23:51 | -41.79502 | 174.47395 | 25810 ft | 422 kts | 217° |
| 2026-05-06 23:51 | -41.81942 | 174.45214 | 26228 ft | 422 kts | 219° |
| 2026-05-06 23:51 | -41.84387 | 174.42992 | 26656 ft | 425 kts | 219° |
| 2026-05-06 23:52 | -41.86838 | 174.40763 | 27088 ft | 427 kts | 219° |
| 2026-05-06 23:52 | -41.89320 | 174.38505 | 27494 ft | 430 kts | 219° |
| 2026-05-06 23:52 | -41.91803 | 174.36241 | 27902 ft | 432 kts | 220° |
| 2026-05-06 23:52 | -41.94267 | 174.33990 | 28303 ft | 435 kts | 220° |
| 2026-05-06 23:53 | -41.96779 | 174.31697 | 28717 ft | 437 kts | 220° |
| 2026-05-06 23:53 | -41.99305 | 174.29394 | 29108 ft | 440 kts | 220° |
| 2026-05-06 23:53 | -42.01844 | 174.27077 | 29505 ft | 443 kts | 220° |
| 2026-05-06 23:53 | -42.04400 | 174.24740 | 29911 ft | 446 kts | 220° |
| 2026-05-06 23:54 | -42.06969 | 174.22385 | 30280 ft | 448 kts | 220° |
| 2026-05-06 23:54 | -42.09553 | 174.20013 | 30650 ft | 450 kts | 220° |
| 2026-05-06 23:54 | -42.12145 | 174.17632 | 31006 ft | 452 kts | 220° |
| 2026-05-06 23:54 | -42.14749 | 174.15238 | 31378 ft | 453 kts | 220° |
| 2026-05-06 23:55 | -42.17353 | 174.12840 | 31775 ft | 454 kts | 221° |
| 2026-05-06 23:55 | -42.19949 | 174.10448 | 32322 ft | 451 kts | 221° |
| 2026-05-06 23:55 | -42.22530 | 174.08070 | 32892 ft | 447 kts | 221° |
| 2026-05-06 23:55 | -42.25093 | 174.05709 | 33462 ft | 444 kts | 221° |
| 2026-05-06 23:56 | -42.27640 | 174.03358 | 33908 ft | 443 kts | 221° |
| 2026-05-06 23:56 | -42.30173 | 174.01014 | 34004 ft | 437 kts | 221° |
| 2026-05-06 23:56 | -42.35111 | 173.96442 | 34020 ft | 427 kts | 221° |
| 2026-05-06 23:57 | -42.39999 | 173.91901 | 34009 ft | 426 kts | 222° |
| 2026-05-06 23:57 | -42.44861 | 173.87369 | 34002 ft | 426 kts | 222° |
| 2026-05-06 23:58 | -42.49748 | 173.82811 | 33996 ft | 427 kts | 222° |
| 2026-05-06 23:58 | -42.54639 | 173.78248 | 33997 ft | 427 kts | 222° |
| 2026-05-06 23:59 | -42.59525 | 173.73686 | 33992 ft | 427 kts | 222° |
| 2026-05-06 23:59 | -42.64421 | 173.69102 | 33992 ft | 427 kts | 223° |
| 2026-05-07 00:00 | -42.69309 | 173.64508 | 33984 ft | 427 kts | 223° |
| 2026-05-07 00:00 | -42.73373 | 173.60691 | 33985 ft | 427 kts | 223° |
| 2026-05-07 00:01 | -42.79083 | 173.55308 | 33986 ft | 427 kts | 223° |
| 2026-05-07 00:01 | -42.83979 | 173.50681 | 33986 ft | 428 kts | 223° |
| 2026-05-07 00:02 | -42.88867 | 173.46056 | 33975 ft | 428 kts | 223° |
| 2026-05-07 00:02 | -42.93754 | 173.41426 | 33976 ft | 428 kts | 223° |
| 2026-05-07 00:03 | -42.98620 | 173.36809 | 33971 ft | 428 kts | 223° |
| 2026-05-07 00:03 | -43.03512 | 173.32156 | 33976 ft | 428 kts | 223° |
| 2026-05-07 00:04 | -43.08398 | 173.27489 | 33970 ft | 428 kts | 223° |
| 2026-05-07 00:04 | -43.12606 | 173.22020 | 33968 ft | 409 kts | 242° |
| 2026-05-07 00:05 | -43.15993 | 173.15750 | 33956 ft | 409 kts | 241° |
| 2026-05-07 00:05 | -43.19386 | 173.09476 | 33947 ft | 410 kts | 241° |
| 2026-05-07 00:06 | -43.22780 | 173.03180 | 33944 ft | 410 kts | 241° |
| 2026-05-07 00:06 | -43.26150 | 172.96923 | 33941 ft | 411 kts | 242° |
| 2026-05-07 00:07 | -43.29567 | 172.90565 | 33934 ft | 411 kts | 241° |
| 2026-05-07 00:07 | -43.32947 | 172.84266 | 33922 ft | 412 kts | 241° |
| 2026-05-07 00:08 | -43.36367 | 172.77880 | 33908 ft | 412 kts | 241° |
| 2026-05-07 00:08 | -43.39748 | 172.71552 | 33899 ft | 413 kts | 241° |
| 2026-05-07 00:09 | -43.43147 | 172.65168 | 33886 ft | 414 kts | 241° |
| 2026-05-07 00:09 | -43.46549 | 172.58755 | 33877 ft | 415 kts | 241° |
| 2026-05-07 00:10 | -43.49951 | 172.52320 | 33884 ft | 416 kts | 242° |
| 2026-05-07 00:10 | -43.52914 | 172.45557 | 33882 ft | 412 kts | 247° |
| 2026-05-07 00:11 | -43.55800 | 172.38701 | 33867 ft | 414 kts | 247° |
| 2026-05-07 00:11 | -43.58696 | 172.31827 | 33867 ft | 415 kts | 246° |
| 2026-05-07 00:12 | -43.61108 | 172.26084 | 33863 ft | 416 kts | 246° |
| 2026-05-07 00:12 | -43.64013 | 172.19145 | 33853 ft | 418 kts | 246° |
| 2026-05-07 00:13 | -43.67401 | 172.11059 | 33845 ft | 419 kts | 246° |
| 2026-05-07 00:13 | -43.69845 | 172.05210 | 33837 ft | 420 kts | 246° |
| 2026-05-07 00:14 | -43.72760 | 171.98201 | 33841 ft | 421 kts | 246° |
| 2026-05-07 00:14 | -43.75673 | 171.91180 | 33834 ft | 421 kts | 246° |
| 2026-05-07 00:15 | -43.78586 | 171.84133 | 33830 ft | 422 kts | 247° |
| 2026-05-07 00:15 | -43.81491 | 171.77082 | 33824 ft | 422 kts | 247° |
| 2026-05-07 00:16 | -43.84383 | 171.70060 | 33820 ft | 422 kts | 246° |
| 2026-05-07 00:16 | -43.87370 | 171.63034 | 33813 ft | 424 kts | 246° |
| 2026-05-07 00:17 | -43.90392 | 171.56021 | 33811 ft | 424 kts | 246° |
| 2026-05-07 00:17 | -43.93399 | 171.48976 | 33806 ft | 424 kts | 246° |
| 2026-05-07 00:18 | -43.96391 | 171.41921 | 33811 ft | 425 kts | 246° |
| 2026-05-07 00:18 | -43.99382 | 171.34853 | 33806 ft | 425 kts | 246° |
| 2026-05-07 00:19 | -44.02372 | 171.27759 | 33811 ft | 425 kts | 247° |
| 2026-05-07 00:19 | -44.05352 | 171.20661 | 33808 ft | 425 kts | 247° |
| 2026-05-07 00:20 | -44.08339 | 171.13554 | 33809 ft | 426 kts | 246° |
| 2026-05-07 00:20 | -44.11330 | 171.06451 | 33813 ft | 426 kts | 247° |
| 2026-05-07 00:21 | -44.14304 | 170.99325 | 33818 ft | 425 kts | 247° |
| 2026-05-07 00:21 | -44.17281 | 170.92171 | 33812 ft | 432 kts | 247° |
| 2026-05-07 00:22 | -44.20311 | 170.84851 | 33807 ft | 438 kts | 247° |
| 2026-05-07 00:22 | -44.23358 | 170.77494 | 33373 ft | 435 kts | 246° |
| 2026-05-07 00:23 | -44.24868 | 170.73850 | 32303 ft | 432 kts | 246° |
| 2026-05-07 00:23 | -44.26363 | 170.70239 | 31350 ft | 428 kts | 246° |
| 2026-05-07 00:23 | -44.27842 | 170.66666 | 30442 ft | 424 kts | 246° |
| 2026-05-07 00:23 | -44.29289 | 170.63166 | 29531 ft | 419 kts | 246° |
| 2026-05-07 00:24 | -44.30724 | 170.59702 | 29055 ft | 403 kts | 246° |
| 2026-05-07 00:24 | -44.32108 | 170.56355 | 28649 ft | 396 kts | 247° |
| 2026-05-07 00:24 | -44.33470 | 170.53032 | 28239 ft | 392 kts | 247° |
| 2026-05-07 00:24 | -44.34818 | 170.49739 | 27833 ft | 390 kts | 247° |
| 2026-05-07 00:25 | -44.36159 | 170.46458 | 27423 ft | 387 kts | 247° |
| 2026-05-07 00:25 | -44.37488 | 170.43195 | 27006 ft | 385 kts | 248° |
| 2026-05-07 00:25 | -44.38809 | 170.39954 | 26596 ft | 383 kts | 247° |
| 2026-05-07 00:25 | -44.40124 | 170.36727 | 26157 ft | 382 kts | 247° |
| 2026-05-07 00:26 | -44.41438 | 170.33503 | 25743 ft | 380 kts | 247° |
| 2026-05-07 00:26 | -44.42745 | 170.30297 | 25298 ft | 380 kts | 247° |
| 2026-05-07 00:26 | -44.44049 | 170.27085 | 24853 ft | 378 kts | 247° |
| 2026-05-07 00:26 | -44.45344 | 170.23887 | 24399 ft | 378 kts | 248° |
| 2026-05-07 00:27 | -44.46637 | 170.20689 | 23941 ft | 377 kts | 247° |
| 2026-05-07 00:27 | -44.47929 | 170.17502 | 23472 ft | 374 kts | 247° |
| 2026-05-07 00:27 | -44.49197 | 170.14398 | 22979 ft | 360 kts | 248° |
| 2026-05-07 00:27 | -44.50427 | 170.11389 | 22572 ft | 353 kts | 248° |
| 2026-05-07 00:28 | -44.51635 | 170.08409 | 22115 ft | 351 kts | 248° |
| 2026-05-07 00:28 | -44.52831 | 170.05439 | 21683 ft | 349 kts | 248° |
| 2026-05-07 00:28 | -44.54019 | 170.02487 | 21251 ft | 346 kts | 249° |
| 2026-05-07 00:28 | -44.55199 | 169.99558 | 20827 ft | 344 kts | 249° |
| 2026-05-07 00:29 | -44.56368 | 169.96647 | 20405 ft | 341 kts | 249° |
| 2026-05-07 00:29 | -44.57530 | 169.93745 | 19964 ft | 340 kts | 249° |
| 2026-05-07 00:30 | -44.60984 | 169.85095 | 18717 ft | 338 kts | 249° |
| 2026-05-07 00:30 | -44.62138 | 169.82208 | 18287 ft | 338 kts | 249° |
| 2026-05-07 00:30 | -44.63283 | 169.79339 | 17840 ft | 337 kts | 249° |
| 2026-05-07 00:30 | -44.64424 | 169.76478 | 17408 ft | 334 kts | 249° |
| 2026-05-07 00:31 | -44.65559 | 169.73651 | 16997 ft | 330 kts | 249° |
| 2026-05-07 00:31 | -44.66672 | 169.70868 | 16588 ft | 329 kts | 249° |
| 2026-05-07 00:31 | -44.67791 | 169.68067 | 16177 ft | 328 kts | 249° |
| 2026-05-07 00:31 | -44.68902 | 169.65277 | 15767 ft | 327 kts | 250° |
| 2026-05-07 00:32 | -44.70006 | 169.62498 | 15366 ft | 325 kts | 250° |
| 2026-05-07 00:32 | -44.71102 | 169.59734 | 14957 ft | 321 kts | 249° |
| 2026-05-07 00:32 | -44.72170 | 169.57059 | 14567 ft | 307 kts | 250° |
| 2026-05-07 00:32 | -44.73219 | 169.54422 | 14062 ft | 310 kts | 251° |
| 2026-05-07 00:33 | -44.74254 | 169.51808 | 13903 ft | 301 kts | 251° |
| 2026-05-07 00:33 | -44.75266 | 169.49254 | 13575 ft | 298 kts | 251° |
| 2026-05-07 00:33 | -44.76269 | 169.46709 | 13179 ft | 297 kts | 251° |
| 2026-05-07 00:33 | -44.77270 | 169.44167 | 12800 ft | 295 kts | 251° |
| 2026-05-07 00:34 | -44.78260 | 169.41650 | 12429 ft | 292 kts | 251° |
| 2026-05-07 00:34 | -44.79243 | 169.39139 | 12049 ft | 294 kts | 251° |
| 2026-05-07 00:34 | -44.80216 | 169.36657 | 11667 ft | 294 kts | 251° |
| 2026-05-07 00:34 | -44.81202 | 169.34136 | 11298 ft | 292 kts | 253° |
| 2026-05-07 00:35 | -44.81887 | 169.31513 | 10926 ft | 280 kts | 266° |
| 2026-05-07 00:35 | -44.82327 | 169.28832 | 10569 ft | 281 kts | 266° |
| 2026-05-07 00:35 | -44.82771 | 169.26152 | 10205 ft | 281 kts | 266° |
| 2026-05-07 00:35 | -44.83215 | 169.23472 | 9833 ft | 282 kts | 266° |
| 2026-05-07 00:36 | -44.83662 | 169.20767 | 9457 ft | 283 kts | 265° |
| 2026-05-07 00:36 | -44.84113 | 169.18063 | 9034 ft | 286 kts | 264° |
| 2026-05-07 00:36 | -44.84569 | 169.15361 | 8758 ft | 280 kts | 263° |
| 2026-05-07 00:36 | -44.85286 | 169.12810 | 8553 ft | 284 kts | 248° |
| 2026-05-07 00:37 | -44.86432 | 169.10492 | 8573 ft | 294 kts | 234° |
| 2026-05-07 00:37 | -44.87979 | 169.08564 | 8570 ft | 301 kts | 219° |
| 2026-05-07 00:37 | -44.89855 | 169.07178 | 8215 ft | 310 kts | 205° |
| 2026-05-07 00:37 | -44.91983 | 169.06468 | 7765 ft | 317 kts | 188° |
| 2026-05-07 00:38 | -44.94173 | 169.06494 | 7350 ft | 313 kts | 177° |
| 2026-05-07 00:38 | -44.96320 | 169.06716 | 6965 ft | 305 kts | 178° |
| 2026-05-07 00:38 | -44.98375 | 169.06881 | 6593 ft | 293 kts | 185° |
| 2026-05-07 00:38 | -45.00329 | 169.06328 | 6180 ft | 284 kts | 206° |
| 2026-05-07 00:39 | -45.01966 | 169.04847 | 5781 ft | 278 kts | 229° |
| 2026-05-07 00:39 | -45.03100 | 169.02693 | 5393 ft | 272 kts | 247° |
| 2026-05-07 00:39 | -45.03619 | 169.00157 | 5024 ft | 267 kts | 267° |
| 2026-05-07 00:39 | -45.03546 | 168.97568 | 4651 ft | 259 kts | 284° |
| 2026-05-07 00:40 | -45.02984 | 168.95219 | 4295 ft | 248 kts | 299° |
| 2026-05-07 00:40 | -45.02114 | 168.93197 | 4028 ft | 234 kts | 303° |
| 2026-05-07 00:40 | -45.01277 | 168.91310 | 3858 ft | 219 kts | 302° |
| 2026-05-07 00:40 | -45.00498 | 168.89537 | 3662 ft | 205 kts | 302° |
| 2026-05-07 00:41 | -44.99961 | 168.87708 | 3504 ft | 200 kts | 282° |
| 2026-05-07 00:41 | -44.99896 | 168.85793 | 3355 ft | 191 kts | 263° |
| 2026-05-07 00:41 | -45.00149 | 168.83993 | 3054 ft | 187 kts | 258° |
| 2026-05-07 00:41 | -45.00407 | 168.82207 | 2650 ft | 183 kts | 259° |
| 2026-05-07 00:42 | -45.00697 | 168.80502 | 2285 ft | 174 kts | 253° |
| 2026-05-07 00:42 | -45.01077 | 168.78965 | 1945 ft | 155 kts | 248° |
| 2026-05-07 00:42 | -45.01391 | 168.77550 | 1493 ft | 148 kts | 259° |
| 2026-05-07 00:42 | -45.01580 | 168.76190 | 1271 ft | 138 kts | 257° |
| 2026-05-07 00:43 | -45.01780 | 168.74989 | 1166 ft | 102 kts | 259° |
| 2026-05-07 00:43 | -45.01868 | 168.74432 | 1169 ft | 14 kts | 258° |
| 2026-05-07 00:43 | -45.01893 | 168.74270 | 1169 ft | 24 kts | 258° |
| 2026-05-07 00:43 | -45.01937 | 168.74112 | 1165 ft | 11 kts | 199° |
| 2026-05-07 00:44 | -45.01995 | 168.74086 | 1164 ft | 9 kts | 200° |
| 2026-05-07 00:44 | -45.02013 | 168.74076 | 1164 ft | 0 kts | 203° |
| 2026-05-07 00:45 | -45.02027 | 168.74067 | 1164 ft | 4 kts | 203° |
| 2026-05-07 00:45 | -45.02049 | 168.74025 | 1164 ft | 7 kts | 257° |
| 2026-05-07 00:45 | -45.02059 | 168.73996 | 1164 ft | 3 kts | 218° |
| 2026-05-07 00:45 | -45.02090 | 168.73977 | 1163 ft | 3 kts | 205° |
| 2026-05-07 00:46 | -45.02102 | 168.73969 | 1163 ft | 1 kts | 206° |
| 2026-05-07 00:46 | -45.02109 | 168.73964 | 1164 ft | 0 kts | 205° |